Time;durP1;ratioP1;P1;durP2;ratioP2;P2;SDS_P1;SDS_P2;PMS_P1;PMS_P2;Temp;Humidity;BMP_temperature;BMP_pressure;BME280_temperature;BME280_humidity;BME280_pressure;Samples;Min_cycle;Max_cycle;Signal;HPM_P1;HPM_P2
2023/10/13 00:00:43;;;;;;;3.17;3.07;;;21.00;76.40;;;;;;5066172;28;43409;-69
2023/10/13 00:03:15;;;;;;;3.70;3.60;;;21.00;76.40;;;;;;5069374;28;43824;-67
2023/10/13 00:05:44;;;;;;;3.50;3.30;;;20.90;76.40;;;;;;5072444;28;43441;-66
2023/10/13 00:08:13;;;;;;;3.40;3.30;;;20.90;76.60;;;;;;5072759;28;43645;-67
2023/10/13 00:10:42;;;;;;;3.53;3.43;;;20.80;76.70;;;;;;5073068;28;43449;-66
2023/10/13 00:13:15;;;;;;;3.20;3.03;;;20.90;76.90;;;;;;5069692;28;43418;-70
2023/10/13 00:15:56;;;;;;;3.23;3.13;;;20.80;76.70;;;;;;5073227;28;43537;-66
2023/10/13 00:18:32;;;;;;;3.30;3.20;;;20.80;76.90;;;;;;5072280;28;43857;-66
2023/10/13 00:21:03;;;;;;;3.10;3.00;;;20.80;77.00;;;;;;5072367;28;43460;-66
2023/10/13 00:23:32;;;;;;;3.10;3.00;;;20.80;77.10;;;;;;5072848;28;43946;-66
2023/10/13 00:26:02;;;;;;;3.83;3.70;;;20.80;76.90;;;;;;5072977;28;43992;-66
2023/10/13 00:28:43;;;;;;;3.10;3.00;;;20.90;76.60;;;;;;5087922;28;45718;-66
2023/10/13 00:31:13;;;;;;;3.03;2.93;;;21.10;76.20;;;;;;5070383;28;44913;-64
2023/10/13 00:33:46;;;;;;;3.30;3.10;;;21.20;75.80;;;;;;5072220;28;43464;-66
2023/10/13 00:36:19;;;;;;;2.90;2.80;;;21.20;75.80;;;;;;5071987;28;43775;-67
2023/10/13 00:38:49;;;;;;;3.07;2.97;;;21.10;75.80;;;;;;5072064;28;43813;-65
2023/10/13 00:41:33;;;;;;;3.37;3.20;;;21.10;76.10;;;;;;5070823;28;43428;-65
2023/10/13 00:44:08;;;;;;;3.40;3.30;;;21.00;76.30;;;;;;5066254;28;43420;-66
2023/10/13 00:46:37;;;;;;;3.30;3.10;;;20.90;76.40;;;;;;5072598;28;43422;-66
2023/10/13 00:49:08;;;;;;;2.70;2.60;;;20.90;76.40;;;;;;5072238;28;43753;-65
2023/10/13 00:51:36;;;;;;;3.00;2.90;;;20.90;76.60;;;;;;5071059;28;44725;-66
2023/10/13 00:54:07;;;;;;;3.10;3.00;;;20.90;76.80;;;;;;5070556;28;43451;-66
2023/10/13 00:56:40;;;;;;;3.00;2.90;;;20.80;76.90;;;;;;5070212;28;43494;-66
2023/10/13 00:59:09;;;;;;;3.10;3.00;;;20.80;76.90;;;;;;5072397;28;43836;-66
2023/10/13 01:01:40;;;;;;;2.90;2.80;;;20.80;76.80;;;;;;5072320;28;43478;-66
2023/10/13 01:04:12;;;;;;;3.20;3.00;;;20.80;76.90;;;;;;5071957;28;43458;-66
2023/10/13 01:06:40;;;;;;;3.10;3.00;;;20.80;77.00;;;;;;5072717;28;43934;-66
2023/10/13 01:09:13;;;;;;;2.87;2.87;;;20.80;77.80;;;;;;5070373;28;45948;-66
2023/10/13 01:11:42;;;;;;;2.90;2.80;;;20.80;77.00;;;;;;5071142;28;44462;-66
2023/10/13 01:14:11;;;;;;;3.03;2.93;;;20.80;77.00;;;;;;5078362;28;43495;-69
2023/10/13 01:16:43;;;;;;;3.20;3.10;;;20.80;77.00;;;;;;5087579;28;43510;-69
2023/10/13 01:19:12;;;;;;;3.00;2.90;;;20.80;77.20;;;;;;5087243;28;45952;-70
2023/10/13 01:21:41;;;;;;;2.77;2.77;;;20.70;77.10;;;;;;5086482;28;45017;-69
2023/10/13 01:24:11;;;;;;;2.80;2.70;;;20.90;77.50;;;;;;5083275;28;43477;-69
2023/10/13 01:26:40;;;;;;;2.80;2.70;;;21.00;76.60;;;;;;5088245;28;43415;-69
2023/10/13 01:29:14;;;;;;;2.80;2.80;;;21.10;75.90;;;;;;5087662;28;46100;-69
2023/10/13 01:31:46;;;;;;;3.10;2.93;;;21.20;75.50;;;;;;5087178;28;43440;-69
2023/10/13 01:34:19;;;;;;;3.10;3.00;;;21.20;75.40;;;;;;5086542;28;43487;-69
2023/10/13 01:36:50;;;;;;;2.70;2.60;;;21.20;75.50;;;;;;5087542;28;43581;-69
2023/10/13 01:39:20;;;;;;;2.67;2.67;;;21.10;75.80;;;;;;5088738;28;43992;-69
2023/10/13 01:41:55;;;;;;;3.10;3.00;;;21.00;76.10;;;;;;5086957;28;45129;-69
2023/10/13 01:44:23;;;;;;;2.90;2.80;;;21.00;76.20;;;;;;5086980;28;43454;-70
2023/10/13 01:46:52;;;;;;;3.50;3.30;;;21.00;76.20;;;;;;5087445;28;43440;-69
2023/10/13 01:49:21;;;;;;;3.00;2.90;;;20.90;76.30;;;;;;5086396;28;45382;-69
2023/10/13 01:51:50;;;;;;;2.80;2.70;;;20.90;76.60;;;;;;5088199;28;43426;-69
2023/10/13 01:54:21;;;;;;;2.70;2.60;;;20.90;76.80;;;;;;5100515;28;43502;-70
2023/10/13 01:56:49;;;;;;;2.90;2.80;;;20.90;76.60;;;;;;5100796;28;43526;-70
2023/10/13 01:59:17;;;;;;;2.70;2.60;;;21.00;76.20;;;;;;5085889;28;45943;-69
2023/10/13 02:01:45;;;;;;;3.03;2.77;;;21.10;76.00;;;;;;5086792;28;43632;-69
2023/10/13 02:04:14;;;;;;;3.23;3.13;;;21.10;75.90;;;;;;5086502;28;43480;-69
2023/10/13 02:06:43;;;;;;;2.93;2.83;;;21.00;76.00;;;;;;5085917;28;43482;-70
2023/10/13 02:09:13;;;;;;;3.07;2.87;;;21.00;76.10;;;;;;5083227;28;45712;-70
2023/10/13 02:11:46;;;;;;;3.10;3.00;;;21.00;76.00;;;;;;5100494;28;44737;-71
2023/10/13 02:14:16;;;;;;;2.97;2.87;;;21.00;76.10;;;;;;5085890;28;44823;-71
2023/10/13 02:16:46;;;;;;;2.97;2.87;;;20.90;76.20;;;;;;5089806;28;43578;-70
2023/10/13 02:19:16;;;;;;;2.63;2.53;;;20.90;76.60;;;;;;5090167;28;45993;-70
2023/10/13 02:21:45;;;;;;;3.13;2.93;;;20.80;76.60;;;;;;5084789;28;44582;-70
2023/10/13 02:24:18;;;;;;;3.10;3.00;;;20.90;76.60;;;;;;5081605;28;43451;-69
2023/10/13 02:26:47;;;;;;;2.60;2.60;;;20.80;76.60;;;;;;5073370;28;43376;-66
2023/10/13 02:29:17;;;;;;;3.17;3.00;;;20.80;76.70;;;;;;5073494;28;46134;-66
2023/10/13 02:31:54;;;;;;;2.80;2.70;;;20.80;76.90;;;;;;5073737;28;44716;-66
2023/10/13 02:34:23;;;;;;;2.90;2.80;;;20.80;77.00;;;;;;5069826;28;43418;-68
2023/10/13 02:36:52;;;;;;;2.93;2.83;;;20.90;76.80;;;;;;5072463;28;43539;-66
2023/10/13 02:39:24;;;;;;;2.90;2.70;;;21.00;76.30;;;;;;5074842;28;43870;-66
2023/10/13 02:41:56;;;;;;;2.67;2.63;;;21.10;75.80;;;;;;5072942;28;44772;-66
2023/10/13 02:44:30;;;;;;;2.60;2.60;;;21.20;75.60;;;;;;5082611;28;43377;-70
2023/10/13 02:46:58;;;;;;;2.90;2.80;;;21.20;75.50;;;;;;5089902;28;44047;-70
2023/10/13 02:49:31;;;;;;;2.77;2.67;;;21.10;75.70;;;;;;5090627;28;43817;-70
2023/10/13 02:51:59;;;;;;;2.70;2.60;;;21.00;75.90;;;;;;5089693;28;44741;-70
2023/10/13 02:54:31;;;;;;;2.77;2.67;;;21.00;76.20;;;;;;5089994;28;43477;-70
2023/10/13 02:57:02;;;;;;;2.57;2.47;;;20.90;76.20;;;;;;5090733;28;43393;-70
2023/10/13 02:59:38;;;;;;;2.60;2.60;;;20.90;76.30;;;;;;5088767;28;45793;-70
2023/10/13 03:02:17;;;;;;;2.73;2.63;;;20.90;76.50;;;;;;5085263;28;45097;-70
2023/10/13 03:04:46;;;;;;;2.97;2.87;;;20.90;76.70;;;;;;5090372;28;43454;-70
2023/10/13 03:07:15;;;;;;;2.87;2.77;;;20.80;76.70;;;;;;5087393;28;44676;-70
2023/10/13 03:09:50;;;;;;;2.97;2.87;;;20.80;76.70;;;;;;5090353;28;46092;-70
2023/10/13 03:12:19;;;;;;;2.53;2.53;;;20.80;76.70;;;;;;5089604;28;44992;-70
2023/10/13 03:14:48;;;;;;;3.00;2.90;;;20.80;76.90;;;;;;5089585;28;43429;-70
2023/10/13 03:17:18;;;;;;;2.80;2.70;;;20.70;77.60;;;;;;5089385;28;44047;-70
2023/10/13 03:19:49;;;;;;;2.90;2.70;;;20.80;77.10;;;;;;5088889;28;46002;-70
2023/10/13 03:22:18;;;;;;;2.77;2.67;;;20.90;76.90;;;;;;5084985;28;45416;-70
2023/10/13 03:24:47;;;;;;;2.50;2.30;;;21.00;76.50;;;;;;5090263;28;43493;-69
2023/10/13 03:27:16;;;;;;;2.77;2.67;;;21.10;76.00;;;;;;5090252;28;43419;-70
2023/10/13 03:29:47;;;;;;;2.80;2.70;;;21.20;75.60;;;;;;5088535;28;45828;-70
2023/10/13 03:32:16;;;;;;;2.43;2.43;;;21.20;75.60;;;;;;5089866;28;43430;-70
2023/10/13 03:34:54;;;;;;;2.50;2.50;;;21.10;75.80;;;;;;5089166;28;43338;-70
2023/10/13 03:37:37;;;;;;;2.90;2.70;;;21.00;75.90;;;;;;5090044;28;43433;-70
2023/10/13 03:40:15;;;;;;;2.57;2.47;;;20.90;76.20;;;;;;5088020;28;43709;-70
2023/10/13 03:42:57;;;;;;;2.90;2.80;;;20.90;76.40;;;;;;5088697;28;45286;-70
2023/10/13 03:45:27;;;;;;;2.70;2.63;;;20.90;76.40;;;;;;5090386;28;43497;-69
2023/10/13 03:47:55;;;;;;;2.43;2.43;;;20.80;76.50;;;;;;5089915;28;43422;-69
2023/10/13 03:50:32;;;;;;;2.80;2.77;;;20.80;76.70;;;;;;5088429;28;45682;-69
2023/10/13 03:53:00;;;;;;;2.53;2.43;;;20.80;76.80;;;;;;5089422;28;43362;-69
2023/10/13 03:55:29;;;;;;;2.70;2.50;;;20.80;76.70;;;;;;5074291;28;43465;-66
2023/10/13 03:58:00;;;;;;;2.50;2.50;;;20.80;76.70;;;;;;5070526;28;43490;-67
2023/10/13 04:00:30;;;;;;;2.33;2.33;;;20.80;76.80;;;;;;5072183;28;44639;-66
2023/10/13 04:03:08;;;;;;;2.83;2.83;;;20.80;77.00;;;;;;5071191;28;43750;-65
2023/10/13 04:05:40;;;;;;;3.17;2.97;;;20.80;77.10;;;;;;5073126;28;43462;-66
2023/10/13 04:16:38;;;;;;;2.53;2.47;;;21.20;75.60;;;;;;5087339;28;43493;-66
2023/10/13 04:19:09;;;;;;;2.57;2.50;;;21.20;75.60;;;;;;5072068;28;43585;-67
2023/10/13 04:21:42;;;;;;;2.40;2.30;;;21.10;75.70;;;;;;5071238;28;43606;-66
2023/10/13 04:24:24;;;;;;;2.87;2.77;;;21.00;75.90;;;;;;5073199;28;43379;-66
2023/10/13 04:29:51;;;;;;;2.40;2.40;;;20.90;76.20;;;;;;5067187;28;43456;-66
2023/10/13 04:32:29;;;;;;;2.53;2.50;;;20.90;76.40;;;;;;5070978;28;43909;-65
2023/10/13 04:35:08;;;;;;;2.60;2.60;;;20.90;76.50;;;;;;5072306;28;43426;-65
2023/10/13 04:37:50;;;;;;;2.70;2.60;;;20.80;76.60;;;;;;5071983;28;43436;-66
2023/10/13 04:40:19;;;;;;;2.60;2.60;;;20.90;76.80;;;;;;5072322;28;43377;-67
2023/10/13 04:42:53;;;;;;;2.57;2.47;;;20.80;76.60;;;;;;5069909;28;43837;-67
2023/10/13 04:45:46;;;;;;;2.30;2.30;;;20.90;76.80;;;;;;5081889;28;44308;-72
2023/10/13 04:48:27;;;;;;;2.70;2.60;;;20.80;76.80;;;;;;5070187;28;43486;-71
2023/10/13 04:59:35;;;;;;;2.90;2.77;;;21.10;76.10;;;;;;5063539;28;43413;-73
2023/10/13 05:46:49;;;;;;;2.77;2.67;;;20.90;76.30;;;;;;5064745;28;43482;-72
2023/10/13 05:52:18;;;;;;;2.87;2.70;;;20.80;76.70;;;;;;5066209;28;43519;-71
2023/10/13 06:31:01;;;;;;;3.27;2.83;;;20.90;76.20;;;;;;5079155;28;43322;-69
2023/10/13 06:33:29;;;;;;;3.90;3.60;;;20.90;76.50;;;;;;5088100;28;43906;-69
2023/10/13 06:35:58;;;;;;;3.90;3.60;;;20.80;76.60;;;;;;5083704;28;44565;-69
2023/10/13 06:38:30;;;;;;;4.33;3.93;;;20.80;76.70;;;;;;5088860;28;43357;-69
2023/10/13 06:45:28;;;;;;;3.20;3.10;;;20.80;76.60;;;;;;5087435;28;44713;-70
2023/10/13 06:47:58;;;;;;;4.33;3.63;;;20.80;76.80;;;;;;5101717;27;44987;-69
2023/10/13 06:50:28;;;;;;;4.43;3.63;;;20.80;77.00;;;;;;5085203;28;43370;-70
2023/10/13 06:52:57;;;;;;;3.93;3.63;;;20.80;76.90;;;;;;5087220;28;43461;-70
2023/10/13 06:55:27;;;;;;;4.00;3.60;;;20.80;76.90;;;;;;5087039;28;43832;-69
2023/10/13 07:03:05;;;;;;;3.60;3.40;;;20.70;77.00;;;;;;5072147;28;43383;-69
2023/10/13 07:05:39;;;;;;;4.00;3.70;;;20.70;77.10;;;;;;5068640;28;44010;-73
2023/10/13 07:08:08;;;;;;;4.10;3.80;;;20.80;76.80;;;;;;5068740;28;43850;-72
2023/10/13 07:10:44;;;;;;;4.53;4.07;;;21.00;76.30;;;;;;5070422;28;43990;-72
2023/10/13 07:13:13;;;;;;;3.97;3.70;;;21.10;75.80;;;;;;5070789;28;44004;-71
2023/10/13 07:15:45;;;;;;;4.57;3.87;;;21.20;75.60;;;;;;5071168;28;43901;-71
2023/10/13 07:18:14;;;;;;;6.80;4.33;;;21.20;75.60;;;;;;5069413;28;45657;-71
2023/10/13 07:21:30;;;;;;;4.60;4.13;;;21.10;76.40;;;;;;5056258;28;43492;-71
2023/10/13 07:24:08;;;;;;;4.63;4.23;;;21.00;76.00;;;;;;5071050;28;44126;-65
2023/10/13 07:26:42;;;;;;;4.10;3.73;;;20.90;76.20;;;;;;5068910;28;43496;-65
2023/10/13 07:29:11;;;;;;;4.53;4.13;;;20.90;76.20;;;;;;5074596;28;43697;-65
2023/10/13 07:48:26;;;;;;;4.97;4.50;;;20.80;77.00;;;;;;5062732;28;43450;-66
2023/10/13 07:51:01;;;;;;;4.73;4.33;;;20.70;77.20;;;;;;5073706;28;43372;-65
2023/10/13 07:53:34;;;;;;;4.70;4.30;;;20.70;77.10;;;;;;5074695;28;43812;-65
2023/10/13 07:56:05;;;;;;;5.90;4.30;;;20.80;76.80;;;;;;5074768;28;43619;-65
2023/10/13 07:58:34;;;;;;;5.83;4.53;;;21.00;76.40;;;;;;5073650;28;43739;-65
2023/10/13 08:01:08;;;;;;;4.47;4.17;;;21.10;76.00;;;;;;5071626;28;43368;-66
2023/10/13 08:03:44;;;;;;;4.73;4.33;;;21.10;75.80;;;;;;5074264;28;43952;-67
2023/10/13 08:06:26;;;;;;;5.10;4.60;;;21.10;75.80;;;;;;5073452;28;43578;-66
2023/10/13 08:09:07;;;;;;;4.30;3.90;;;21.00;76.10;;;;;;5074131;28;43394;-65
2023/10/13 08:11:36;;;;;;;4.80;4.30;;;20.90;76.30;;;;;;5073986;28;43354;-65
2023/10/13 08:14:12;;;;;;;4.67;4.23;;;20.80;76.40;;;;;;5071054;28;43891;-70
2023/10/13 08:17:00;;;;;;;4.20;3.90;;;20.90;76.60;;;;;;5064821;28;44064;-71
2023/10/13 08:19:39;;;;;;;5.43;3.83;;;20.80;76.60;;;;;;5068445;28;44068;-70
2023/10/13 08:22:23;;;;;;;4.23;3.97;;;20.80;76.80;;;;;;5063813;28;43624;-70
2023/10/13 08:31:26;;;;;;;4.13;3.83;;;20.80;77.00;;;;;;5066466;28;43403;-70
2023/10/13 08:34:05;;;;;;;4.50;4.10;;;20.70;77.00;;;;;;5066224;28;43446;-66
2023/10/13 08:36:38;;;;;;;4.77;4.37;;;20.70;77.20;;;;;;5071903;28;43384;-66
2023/10/13 08:39:57;;;;;;;4.37;3.97;;;20.70;77.90;;;;;;5070697;28;43856;-66
2023/10/13 08:42:11;;;;;;;4.40;4.10;;;20.80;77.00;;;;;;5070508;28;44572;-65
2023/10/13 08:44:52;;;;;;;4.53;4.07;;;21.00;76.40;;;;;;5069927;28;43438;-65
2023/10/13 08:47:24;;;;;;;4.60;4.20;;;21.10;76.10;;;;;;5071676;28;43890;-65
2023/10/13 08:50:10;;;;;;;4.00;3.70;;;21.10;75.90;;;;;;5071295;28;43637;-66
2023/10/13 08:52:46;;;;;;;4.40;4.10;;;21.00;75.90;;;;;;5072275;28;43447;-66
2023/10/13 08:55:39;;;;;;;4.67;4.20;;;21.00;76.20;;;;;;5069187;28;43433;-66
2023/10/13 08:58:13;;;;;;;4.87;4.20;;;20.90;76.60;;;;;;5074691;28;43482;-66
2023/10/13 09:00:56;;;;;;;4.60;4.30;;;20.90;76.60;;;;;;5072427;28;43910;-66
2023/10/13 09:03:29;;;;;;;5.13;4.23;;;20.80;76.60;;;;;;5070033;28;44869;-65
2023/10/13 09:06:07;;;;;;;3.60;3.40;;;20.80;76.70;;;;;;5069102;28;43459;-65
2023/10/13 09:08:58;;;;;;;3.90;3.60;;;20.80;76.90;;;;;;5072567;28;43399;-66
2023/10/13 09:11:27;;;;;;;4.10;3.90;;;20.80;77.10;;;;;;5068527;28;43677;-65
2023/10/13 09:14:03;;;;;;;4.30;4.00;;;20.80;76.70;;;;;;5071127;28;43469;-67
2023/10/13 09:19:15;;;;;;;4.20;3.90;;;21.10;76.00;;;;;;5065966;28;45025;-65
2023/10/13 09:21:48;;;;;;;4.30;4.00;;;21.10;75.70;;;;;;5070346;28;45020;-66
2023/10/13 09:24:21;;;;;;;3.90;3.70;;;21.10;75.70;;;;;;5070864;28;43524;-67
2023/10/13 09:26:53;;;;;;;3.97;3.77;;;21.00;75.90;;;;;;5069203;28;43392;-67
2023/10/13 09:29:21;;;;;;;3.87;3.73;;;21.00;76.20;;;;;;5071977;28;43431;-67
2023/10/13 09:32:00;;;;;;;3.60;3.40;;;20.90;76.50;;;;;;5069727;28;45998;-66
2023/10/13 09:34:31;;;;;;;4.13;3.80;;;20.90;76.70;;;;;;5067397;28;44766;-66
2023/10/13 09:36:59;;;;;;;4.30;4.10;;;20.80;76.90;;;;;;5071367;28;43422;-67
2023/10/13 09:39:41;;;;;;;4.50;4.20;;;20.70;77.00;;;;;;5072258;28;43570;-66
2023/10/13 09:42:12;;;;;;;3.80;3.60;;;20.70;77.30;;;;;;5070629;28;43583;-65
2023/10/13 09:44:49;;;;;;;4.17;3.87;;;20.70;77.20;;;;;;5071391;28;43437;-66
2023/10/13 09:47:24;;;;;;;3.97;3.73;;;20.80;76.90;;;;;;5072294;28;43402;-66
2023/10/13 09:49:52;;;;;;;3.93;3.73;;;21.00;76.30;;;;;;5069470;28;43473;-64
2023/10/13 09:52:20;;;;;;;3.93;3.63;;;21.20;75.60;;;;;;5065622;28;46100;-65
2023/10/13 09:54:59;;;;;;;3.97;3.67;;;21.50;75.00;;;;;;5069128;28;45357;-66
2023/10/13 09:57:34;;;;;;;3.80;3.60;;;21.70;74.20;;;;;;5070905;28;43402;-68
2023/10/13 10:00:26;;;;;;;4.00;3.80;;;21.90;73.60;;;;;;5066060;28;44034;-67
2023/10/13 10:02:58;;;;;;;3.40;3.30;;;22.00;73.00;;;;;;5068682;28;43848;-67
2023/10/13 10:05:26;;;;;;;3.80;3.43;;;22.10;72.60;;;;;;5069669;28;43497;-68
2023/10/13 10:07:58;;;;;;;3.83;3.63;;;22.20;72.40;;;;;;5070947;28;43386;-66
2023/10/13 10:10:42;;;;;;;4.40;4.07;;;22.10;72.20;;;;;;5069779;28;44827;-67
2023/10/13 10:13:16;;;;;;;3.83;3.53;;;22.00;72.50;;;;;;5067812;28;43763;-67
2023/10/13 10:15:46;;;;;;;3.70;3.50;;;21.90;72.90;;;;;;5065275;28;43399;-67
2023/10/13 10:18:21;;;;;;;3.80;3.60;;;21.80;73.50;;;;;;5068785;28;43415;-68
2023/10/13 10:20:52;;;;;;;3.90;3.70;;;21.70;73.80;;;;;;5069352;28;43469;-67
2023/10/13 10:23:25;;;;;;;3.90;3.70;;;21.60;74.00;;;;;;5067603;28;43590;-66
2023/10/13 10:26:08;;;;;;;3.90;3.70;;;21.50;74.70;;;;;;5068270;28;43430;-66
2023/10/13 10:28:36;;;;;;;3.97;3.77;;;21.40;75.10;;;;;;5070394;28;43478;-66
2023/10/13 10:31:10;;;;;;;3.77;3.57;;;21.30;75.30;;;;;;5070099;28;43550;-67
2023/10/13 10:33:38;;;;;;;4.03;3.73;;;21.30;75.20;;;;;;5073364;28;43595;-70
2023/10/13 10:36:06;;;;;;;4.07;3.87;;;21.40;74.90;;;;;;5085478;28;44432;-70
2023/10/13 10:38:38;;;;;;;3.60;3.40;;;21.50;74.60;;;;;;5088450;28;43482;-70
2023/10/13 10:41:09;;;;;;;3.70;3.50;;;21.50;74.30;;;;;;5090339;28;43519;-70
2023/10/13 10:43:46;;;;;;;3.63;3.50;;;21.50;74.30;;;;;;5090668;28;43617;-70
2023/10/13 10:46:15;;;;;;;3.63;3.53;;;21.40;75.00;;;;;;5090951;28;43652;-70
2023/10/13 10:48:45;;;;;;;4.37;4.07;;;21.30;75.40;;;;;;5090631;28;43407;-69
2023/10/13 10:51:21;;;;;;;3.83;3.53;;;21.20;75.40;;;;;;5088941;28;43375;-69
2023/10/13 10:53:50;;;;;;;4.07;3.77;;;21.20;75.50;;;;;;5084841;28;43891;-70
2023/10/13 10:56:24;;;;;;;3.60;3.40;;;21.20;75.90;;;;;;5070330;28;43474;-69
2023/10/13 10:58:56;;;;;;;3.90;3.73;;;21.10;76.20;;;;;;5068670;28;44086;-70
2023/10/13 11:01:33;;;;;;;3.83;3.60;;;21.10;76.40;;;;;;5069607;28;44382;-70
2023/10/13 11:04:07;;;;;;;3.73;3.63;;;21.00;76.20;;;;;;5068990;28;43865;-70
2023/10/13 11:06:41;;;;;;;3.67;3.57;;;21.00;76.50;;;;;;5065215;28;45174;-70
2023/10/13 11:09:27;;;;;;;3.77;3.57;;;21.00;76.80;;;;;;5070466;28;43473;-70
2023/10/13 11:11:57;;;;;;;3.43;3.33;;;20.90;76.90;;;;;;5069472;28;43423;-70
2023/10/13 11:14:26;;;;;;;3.80;3.60;;;20.90;76.80;;;;;;5068554;28;43887;-70
2023/10/13 11:16:55;;;;;;;3.63;3.53;;;20.90;76.70;;;;;;5067926;28;44755;-69
2023/10/13 11:19:27;;;;;;;4.00;3.80;;;21.00;76.30;;;;;;5068747;28;44009;-70
2023/10/13 11:21:56;;;;;;;3.80;3.60;;;21.20;75.90;;;;;;5067908;28;43463;-69
2023/10/13 11:24:24;;;;;;;3.67;3.47;;;21.30;75.30;;;;;;5068302;28;43941;-69
2023/10/13 11:26:54;;;;;;;3.40;3.20;;;21.40;75.20;;;;;;5067663;28;43501;-70
2023/10/13 11:29:34;;;;;;;3.70;3.60;;;21.30;75.10;;;;;;5069124;28;43457;-69
2023/10/13 11:32:02;;;;;;;4.00;3.80;;;21.30;75.60;;;;;;5068621;28;43451;-70
2023/10/13 11:34:40;;;;;;;3.70;3.60;;;21.20;76.50;;;;;;5066722;28;43713;-70
2023/10/13 11:39:54;;;;;;;3.57;3.33;;;21.10;76.00;;;;;;5068607;28;43441;-69
2023/10/13 11:42:24;;;;;;;3.60;3.50;;;21.00;76.20;;;;;;5067428;28;43463;-69
2023/10/13 11:45:28;;;;;;;3.70;3.50;;;21.00;76.40;;;;;;5071097;28;43607;-67
2023/10/13 11:47:58;;;;;;;3.87;3.67;;;20.90;76.60;;;;;;5071733;28;44709;-67
2023/10/13 11:50:32;;;;;;;3.40;3.30;;;20.90;76.60;;;;;;5074989;28;43494;-67
2023/10/13 11:53:07;;;;;;;3.10;3.00;;;20.90;76.60;;;;;;5074368;28;43526;-67
2023/10/13 11:55:36;;;;;;;3.87;3.70;;;20.90;76.70;;;;;;5065634;28;43955;-66
2023/10/13 11:58:05;;;;;;;3.93;3.73;;;20.90;76.80;;;;;;5074631;28;43999;-67
2023/10/13 12:06:19;;;;;;;3.50;3.40;;;21.00;76.30;;;;;;5069656;28;45306;-66
2023/10/13 12:08:51;;;;;;;3.80;3.70;;;21.20;75.90;;;;;;5073200;28;43398;-66
2023/10/13 12:11:32;;;;;;;3.70;3.50;;;21.20;75.50;;;;;;5073295;28;43481;-66
2023/10/13 12:14:11;;;;;;;3.20;3.03;;;21.20;75.50;;;;;;5073202;28;43422;-66
2023/10/13 12:16:40;;;;;;;3.50;3.30;;;21.20;75.90;;;;;;5072892;28;43946;-66
2023/10/13 12:19:11;;;;;;;3.40;3.30;;;21.10;76.10;;;;;;5073371;28;43412;-66
2023/10/13 12:21:40;;;;;;;4.17;3.87;;;21.00;76.40;;;;;;5072944;28;43497;-67
2023/10/13 12:24:12;;;;;;;4.30;4.00;;;21.00;77.10;;;;;;5071061;28;43407;-68
2023/10/13 12:26:42;;;;;;;12.37;4.30;;;21.00;76.60;;;;;;5072335;28;43618;-66
2023/10/13 12:29:22;;;;;;;8.80;3.90;;;20.90;76.60;;;;;;5072907;28;43493;-67
2023/10/13 12:32:05;;;;;;;28.83;4.87;;;20.90;76.80;;;;;;5070428;28;43502;-66
2023/10/13 12:37:38;;;;;;;10.00;4.40;;;20.90;77.50;;;;;;5069900;28;43721;-68
2023/10/13 12:51:20;;;;;;;9.20;4.40;;;21.00;76.40;;;;;;5071390;28;43458;-67
2023/10/13 12:53:49;;;;;;;6.60;4.00;;;21.10;75.80;;;;;;5066153;28;43406;-72
2023/10/13 12:56:17;;;;;;;7.60;4.27;;;21.20;75.40;;;;;;5065602;28;43364;-70
2023/10/13 12:58:51;;;;;;;7.87;4.20;;;21.20;75.30;;;;;;5067442;28;43591;-70
2023/10/13 13:01:20;;;;;;;5.60;4.47;;;21.20;75.50;;;;;;5067746;28;43483;-70
2023/10/13 13:03:50;;;;;;;5.40;4.30;;;21.10;75.80;;;;;;5067475;28;44060;-70
2023/10/13 13:06:24;;;;;;;7.57;4.10;;;21.10;76.10;;;;;;5067070;28;43431;-71
2023/10/13 13:08:52;;;;;;;5.10;3.77;;;21.00;76.00;;;;;;5067235;28;43615;-70
2023/10/13 13:11:20;;;;;;;3.90;3.70;;;21.00;76.80;;;;;;5068057;28;44010;-70
2023/10/13 13:13:51;;;;;;;4.97;4.00;;;21.00;76.30;;;;;;5073599;28;43339;-69
2023/10/13 13:16:23;;;;;;;5.37;4.20;;;20.90;76.50;;;;;;5089303;28;43403;-70
2023/10/13 13:18:57;;;;;;;7.37;4.60;;;20.90;77.50;;;;;;5087469;28;43790;-69
2023/10/13 13:21:25;;;;;;;4.53;4.23;;;20.90;76.70;;;;;;5087368;28;43408;-69
2023/10/13 13:23:54;;;;;;;4.43;4.03;;;20.80;76.60;;;;;;5084682;28;43418;-69
2023/10/13 13:26:23;;;;;;;4.00;3.80;;;20.80;76.70;;;;;;5086732;28;43451;-70
2023/10/13 13:28:51;;;;;;;6.17;4.60;;;20.80;76.90;;;;;;5086457;28;45272;-70
2023/10/13 13:31:25;;;;;;;4.70;4.40;;;20.80;77.00;;;;;;5085061;28;44783;-70
2023/10/13 13:33:54;;;;;;;4.67;4.07;;;20.90;76.70;;;;;;5087521;28;43478;-71
2023/10/13 13:36:23;;;;;;;4.33;3.77;;;21.00;76.90;;;;;;5087564;28;43968;-70
2023/10/13 13:38:54;;;;;;;4.47;4.10;;;21.10;75.70;;;;;;5084659;28;43625;-70
2023/10/13 13:41:22;;;;;;;5.33;4.20;;;21.20;75.30;;;;;;5087945;28;43444;-70
2023/10/13 13:43:56;;;;;;;4.20;3.90;;;21.20;75.10;;;;;;5087227;28;43731;-70
2023/10/13 13:46:27;;;;;;;4.20;3.90;;;21.20;75.50;;;;;;5088192;28;43477;-70
2023/10/13 13:48:59;;;;;;;4.10;3.80;;;21.10;75.80;;;;;;5087817;28;44262;-70
2023/10/13 13:51:27;;;;;;;4.27;3.90;;;21.10;76.00;;;;;;5085520;28;43434;-70
2023/10/13 13:53:55;;;;;;;5.00;4.17;;;21.00;75.90;;;;;;5085779;28;43516;-70
2023/10/13 13:56:25;;;;;;;3.80;3.63;;;21.00;76.00;;;;;;5085844;28;43457;-70
2023/10/13 13:58:53;;;;;;;4.83;3.77;;;21.00;76.30;;;;;;5085344;28;45853;-70
2023/10/13 14:01:23;;;;;;;3.93;3.70;;;20.90;76.40;;;;;;5086971;28;43451;-70
2023/10/13 14:03:56;;;;;;;3.90;3.70;;;20.90;76.60;;;;;;5081497;28;43504;-72
2023/10/13 14:06:27;;;;;;;4.47;4.17;;;20.90;76.60;;;;;;5067619;28;43423;-72
2023/10/13 14:08:56;;;;;;;4.50;4.10;;;20.80;76.40;;;;;;5067948;28;43809;-72
2023/10/13 14:14:12;;;;;;;3.60;3.50;;;20.80;76.60;;;;;;5032322;28;43443;-73
2023/10/13 14:16:44;;;;;;;3.87;3.63;;;20.80;76.80;;;;;;5063407;28;43513;-72
2023/10/13 14:19:12;;;;;;;3.53;3.43;;;20.80;76.60;;;;;;5066099;28;45614;-71
2023/10/13 14:21:42;;;;;;;3.77;3.57;;;21.00;76.30;;;;;;5069264;28;43410;-71
2023/10/13 14:24:14;;;;;;;3.70;3.60;;;21.10;75.80;;;;;;5068184;28;43466;-65
2023/10/13 14:26:45;;;;;;;3.97;3.60;;;21.20;75.40;;;;;;5071414;28;43398;-66
2023/10/13 14:29:15;;;;;;;3.63;3.43;;;21.20;75.00;;;;;;5070266;28;43606;-66
2023/10/13 14:31:43;;;;;;;3.30;3.20;;;21.20;75.10;;;;;;5069852;28;43502;-66
2023/10/13 14:34:13;;;;;;;3.53;3.33;;;21.20;75.50;;;;;;5068068;28;43354;-66
2023/10/13 14:36:48;;;;;;;3.57;3.43;;;21.10;75.70;;;;;;5069429;28;43458;-66
2023/10/13 14:39:16;;;;;;;3.87;3.73;;;21.00;75.80;;;;;;5067873;28;43659;-68
2023/10/13 14:41:46;;;;;;;4.00;3.70;;;21.00;75.90;;;;;;5069877;28;43472;-66
2023/10/13 14:44:14;;;;;;;3.60;3.50;;;21.00;76.00;;;;;;5069290;28;43471;-68
2023/10/13 14:46:43;;;;;;;3.60;3.50;;;20.90;76.10;;;;;;5070892;28;43440;-66
2023/10/13 14:49:14;;;;;;;3.53;3.37;;;20.90;76.30;;;;;;5070160;28;43757;-66
2023/10/13 14:51:44;;;;;;;4.00;3.80;;;20.90;76.40;;;;;;5063276;28;43482;-66
2023/10/13 14:54:14;;;;;;;3.77;3.67;;;20.90;76.40;;;;;;5071340;28;43407;-66
2023/10/13 14:56:42;;;;;;;2.93;2.80;;;20.80;76.30;;;;;;5072088;28;43409;-66
2023/10/13 14:59:16;;;;;;;3.40;3.30;;;20.90;76.50;;;;;;5070274;28;43633;-66
2023/10/13 15:01:49;;;;;;;3.47;3.20;;;20.80;76.60;;;;;;5069437;28;43953;-65
2023/10/13 15:04:17;;;;;;;3.77;3.57;;;20.80;76.70;;;;;;5071243;28;43441;-66
2023/10/13 15:06:46;;;;;;;3.73;3.53;;;20.80;76.60;;;;;;5069208;28;44144;-65
2023/10/13 15:09:23;;;;;;;3.70;3.50;;;20.80;76.60;;;;;;5070536;28;43624;-66
2023/10/13 15:11:53;;;;;;;3.50;3.37;;;20.80;76.70;;;;;;5073107;28;43451;-67
2023/10/13 15:14:22;;;;;;;4.17;3.73;;;20.80;76.80;;;;;;5069683;28;43364;-72
2023/10/13 15:16:52;;;;;;;3.57;3.47;;;20.80;76.70;;;;;;5064860;28;43502;-72
2023/10/13 15:19:21;;;;;;;3.20;3.10;;;20.80;76.40;;;;;;5064628;28;45384;-72
2023/10/13 15:21:52;;;;;;;3.20;3.10;;;21.00;76.00;;;;;;5055544;28;43482;-72
2023/10/13 15:24:21;;;;;;;3.47;3.20;;;21.20;75.80;;;;;;5068423;28;44031;-72
2023/10/13 15:27:01;;;;;;;3.50;3.30;;;21.20;75.20;;;;;;5064536;28;43458;-71
2023/10/13 15:29:35;;;;;;;3.70;3.60;;;21.20;75.00;;;;;;5064700;28;43606;-72
2023/10/13 15:34:49;;;;;;;3.20;3.10;;;21.20;75.50;;;;;;5067060;28;43454;-70
2023/10/13 15:37:19;;;;;;;3.57;3.47;;;21.10;75.90;;;;;;5068251;28;43570;-71
2023/10/13 15:39:47;;;;;;;3.47;3.27;;;21.00;75.90;;;;;;5066362;28;45137;-70
2023/10/13 15:42:15;;;;;;;3.33;3.17;;;21.00;76.00;;;;;;5066778;28;44481;-70
2023/10/13 15:44:44;;;;;;;3.37;3.27;;;21.00;76.10;;;;;;5066704;28;43810;-70
2023/10/13 15:47:12;;;;;;;3.20;3.10;;;20.90;76.20;;;;;;5066261;28;43453;-70
2023/10/13 15:49:43;;;;;;;3.67;3.47;;;20.90;76.40;;;;;;5065285;28;43588;-71
2023/10/13 15:52:11;;;;;;;3.77;3.50;;;20.90;76.60;;;;;;5066900;28;43486;-70
2023/10/13 15:54:40;;;;;;;3.40;3.10;;;20.90;76.60;;;;;;5065716;28;44095;-71
2023/10/13 15:57:16;;;;;;;3.20;3.10;;;20.90;76.60;;;;;;5065693;28;43517;-70
2023/10/13 15:59:45;;;;;;;3.73;3.37;;;20.90;76.60;;;;;;5066741;28;43635;-71